createdAt,value
2023-04-04T00:00:41.721Z,0.90
2023-04-04T00:03:09.409Z,1.00
2023-04-04T00:05:37.015Z,0.87
2023-04-04T00:08:04.889Z,0.90
2023-04-04T00:10:32.248Z,0.83
2023-04-04T00:12:59.779Z,0.60
2023-04-04T00:15:27.560Z,0.80
2023-04-04T00:17:54.965Z,0.70
2023-04-04T00:20:25.561Z,0.70
2023-04-04T00:22:52.937Z,0.70
2023-04-04T00:25:20.493Z,0.90
2023-04-04T00:27:49.082Z,0.80
2023-04-04T00:30:16.607Z,1.00
2023-04-04T00:32:44.076Z,0.70
2023-04-04T00:35:14.855Z,0.67
2023-04-04T00:37:42.903Z,0.90
2023-04-04T00:40:10.543Z,0.77
2023-04-04T00:42:38.535Z,0.60
2023-04-04T00:45:08.220Z,0.80
2023-04-04T00:47:35.891Z,0.97
2023-04-04T00:50:03.421Z,0.80
2023-04-04T00:52:31.104Z,0.87
2023-04-04T00:54:58.688Z,0.53
2023-04-04T00:57:26.608Z,0.70
2023-04-04T00:59:54.019Z,0.77
2023-04-04T01:02:21.645Z,0.70
2023-04-04T01:04:49.019Z,0.73
2023-04-04T01:07:16.930Z,0.80
2023-04-04T01:09:45.163Z,0.80
2023-04-04T01:12:12.842Z,0.80
2023-04-04T01:14:40.697Z,1.13
2023-04-04T01:17:08.924Z,0.77
2023-04-04T01:19:38.893Z,0.70
2023-04-04T01:22:07.166Z,0.80
2023-04-04T01:24:35.287Z,0.80
2023-04-04T01:27:02.642Z,0.90
2023-04-04T01:29:30.040Z,0.83
2023-04-04T01:32:00.763Z,0.70
2023-04-04T01:34:51.821Z,0.80
2023-04-04T01:37:29.105Z,0.53
2023-04-04T01:40:06.646Z,0.70
2023-04-04T01:42:34.324Z,0.70
2023-04-04T01:45:01.928Z,0.53
2023-04-04T01:47:31.272Z,0.60
2023-04-04T01:49:58.657Z,0.50
2023-04-04T01:52:26.125Z,0.60
2023-04-04T01:54:53.644Z,0.90
2023-04-04T01:57:21.206Z,0.60
2023-04-04T01:59:48.526Z,0.60
2023-04-04T02:02:15.885Z,0.70
2023-04-04T02:04:43.565Z,0.70
2023-04-04T02:07:11.046Z,0.60
2023-04-04T02:09:38.567Z,0.73
2023-04-04T02:12:06.447Z,0.50
2023-04-04T02:14:33.766Z,0.90
2023-04-04T02:17:01.104Z,0.60
2023-04-04T02:19:28.459Z,0.80
2023-04-04T02:21:56.805Z,0.60
2023-04-04T02:24:27.127Z,0.60
2023-04-04T02:26:54.668Z,0.60
2023-04-04T02:29:22.684Z,0.60
2023-04-04T02:31:50.206Z,0.80
2023-04-04T02:34:17.613Z,0.50
2023-04-04T02:36:45.010Z,0.60
2023-04-04T02:39:12.323Z,0.70
2023-04-04T02:41:39.685Z,0.60
2023-04-04T02:44:09.074Z,0.70
2023-04-04T02:46:36.638Z,0.73
2023-04-04T02:49:04.605Z,0.70
2023-04-04T02:51:33.650Z,0.60
2023-04-04T02:54:03.084Z,0.60
2023-04-04T02:56:30.447Z,0.70
2023-04-04T02:58:57.838Z,0.63
2023-04-04T03:01:26.101Z,0.77
2023-04-04T03:03:54.272Z,0.67
2023-04-04T03:06:21.730Z,0.60
2023-04-04T03:08:49.134Z,0.70
2023-04-04T03:11:23.290Z,0.83
2023-04-04T03:13:51.936Z,0.70
2023-04-04T03:16:20.295Z,0.77
2023-04-04T03:18:47.846Z,0.50
2023-04-04T03:21:15.328Z,0.60
2023-04-04T03:23:43.247Z,0.70
2023-04-04T03:26:10.941Z,0.67
2023-04-04T03:28:38.339Z,0.60
2023-04-04T03:31:06.542Z,0.60
2023-04-04T03:33:38.294Z,0.60
2023-04-04T03:36:13.038Z,0.40
2023-04-04T03:38:41.076Z,0.70
2023-04-04T03:41:08.815Z,0.50
2023-04-04T03:43:36.358Z,0.60
2023-04-04T03:46:05.042Z,0.50
2023-04-04T03:48:33.702Z,0.50
2023-04-04T03:51:01.324Z,0.50
2023-04-04T03:53:28.854Z,0.70
2023-04-04T03:55:57.356Z,0.40
2023-04-04T03:58:25.080Z,0.70
2023-04-04T04:00:52.525Z,0.70
2023-04-04T04:03:19.938Z,0.60
2023-04-04T04:05:47.644Z,0.60
2023-04-04T04:08:15.000Z,0.70
2023-04-04T04:10:42.617Z,0.50
2023-04-04T04:13:10.088Z,0.60
2023-04-04T04:15:37.561Z,0.67
2023-04-04T04:18:05.251Z,0.63
2023-04-04T04:20:32.727Z,0.60
2023-04-04T04:23:00.257Z,0.50
2023-04-04T04:25:27.720Z,0.80
2023-04-04T04:27:58.200Z,0.70
2023-04-04T04:30:25.953Z,0.70
2023-04-04T04:32:53.610Z,0.60
2023-04-04T04:35:21.206Z,0.83
2023-04-04T04:37:48.687Z,0.80
2023-04-04T04:40:16.605Z,0.80
2023-04-04T04:42:47.245Z,1.10
2023-04-04T04:45:14.691Z,1.07
2023-04-04T04:47:42.146Z,0.80
2023-04-04T04:50:09.843Z,1.70
2023-04-04T04:52:38.114Z,1.20
2023-04-04T04:55:06.255Z,0.80
2023-04-04T04:57:34.544Z,0.53
2023-04-04T05:00:02.406Z,0.63
2023-04-04T05:02:30.245Z,0.60
2023-04-04T05:04:57.805Z,0.60
2023-04-04T05:07:25.324Z,0.67
2023-04-04T05:09:52.758Z,0.70
2023-04-04T05:12:20.409Z,0.80
2023-04-04T05:14:47.897Z,1.10
2023-04-04T05:17:15.729Z,0.60
2023-04-04T05:19:43.205Z,0.73
2023-04-04T05:22:10.612Z,0.80
2023-04-04T05:24:38.070Z,0.90
2023-04-04T05:27:05.834Z,0.77
2023-04-04T05:29:33.635Z,0.70
2023-04-04T05:32:01.044Z,0.80
2023-04-04T05:34:28.570Z,0.73
2023-04-04T05:36:56.530Z,0.90
2023-04-04T05:39:24.147Z,1.00
2023-04-04T05:41:51.695Z,0.73
2023-04-04T05:44:19.114Z,0.90
2023-04-04T05:46:46.694Z,1.00
2023-04-04T05:49:14.102Z,0.80
2023-04-04T05:51:41.571Z,0.93
2023-04-04T05:54:09.251Z,0.90
2023-04-04T05:56:36.729Z,1.00
2023-04-04T05:59:07.776Z,1.77
2023-04-04T06:01:35.656Z,1.27
2023-04-04T06:04:03.187Z,0.90
2023-04-04T06:06:30.855Z,0.90
2023-04-04T06:08:58.287Z,0.87
2023-04-04T06:11:26.631Z,0.83
2023-04-04T06:13:55.238Z,1.07
2023-04-04T06:16:23.373Z,0.80
2023-04-04T06:18:51.102Z,1.17
2023-04-04T06:21:18.515Z,0.90
2023-04-04T06:23:46.147Z,1.20
2023-04-04T06:26:13.610Z,0.90
2023-04-04T06:29:01.349Z,1.50
2023-04-04T06:31:28.918Z,1.80
2023-04-04T06:33:56.698Z,1.60
2023-04-04T06:36:24.161Z,1.70
2023-04-04T06:38:51.614Z,2.10
2023-04-04T06:41:19.003Z,1.83
2023-04-04T06:43:49.457Z,1.90
2023-04-04T06:46:17.189Z,1.00
2023-04-04T06:48:45.232Z,1.00
2023-04-04T06:51:13.130Z,0.97
2023-04-04T06:53:40.648Z,1.10
2023-04-04T06:56:08.538Z,1.00
2023-04-04T06:58:35.883Z,0.97
2023-04-04T07:01:03.609Z,1.20
2023-04-04T07:03:31.899Z,1.00
2023-04-04T07:05:59.486Z,1.40
2023-04-04T07:08:27.573Z,1.40
2023-04-04T07:10:57.363Z,1.10
2023-04-04T07:13:24.925Z,1.20
2023-04-04T07:15:52.446Z,1.50
2023-04-04T07:18:19.829Z,1.30
2023-04-04T07:20:48.652Z,1.50
2023-04-04T07:23:16.217Z,1.37
2023-04-04T07:25:44.538Z,1.13
2023-04-04T07:28:13.470Z,1.60
2023-04-04T07:30:41.718Z,1.33
2023-04-04T07:33:09.592Z,1.60
2023-04-04T07:35:37.394Z,1.30
2023-04-04T07:38:05.266Z,1.03
2023-04-04T07:40:35.821Z,1.30
2023-04-04T07:43:03.206Z,1.43
2023-04-04T07:45:30.731Z,1.07
2023-04-04T07:47:58.487Z,0.90
2023-04-04T07:50:26.522Z,0.80
2023-04-04T07:52:56.153Z,1.00
2023-04-04T07:55:25.460Z,0.60
2023-04-04T07:57:53.566Z,0.70
2023-04-04T08:00:26.704Z,0.60
2023-04-04T08:02:55.302Z,0.70
2023-04-04T08:05:24.079Z,0.50
2023-04-04T08:07:51.469Z,0.47
2023-04-04T08:10:19.437Z,0.50
2023-04-04T08:12:47.022Z,0.80
2023-04-04T08:15:14.662Z,0.70
2023-04-04T08:17:43.796Z,0.60
2023-04-04T08:20:12.146Z,0.63
2023-04-04T08:22:43.095Z,0.60
2023-04-04T08:25:11.643Z,0.87
2023-04-04T08:27:45.259Z,0.83
2023-04-04T08:30:14.535Z,0.80
2023-04-04T08:32:44.411Z,0.70
2023-04-04T08:35:12.455Z,0.80
2023-04-04T08:37:39.961Z,0.73
2023-04-04T08:40:07.875Z,1.00
2023-04-04T08:42:36.782Z,1.03
2023-04-04T08:45:05.434Z,1.20
2023-04-04T08:47:34.014Z,0.93
2023-04-04T08:50:05.151Z,0.90
2023-04-04T08:52:37.122Z,0.80
2023-04-04T08:55:08.289Z,1.20
2023-04-04T08:57:36.210Z,1.13
2023-04-04T09:00:06.824Z,1.37
2023-04-04T09:02:34.755Z,1.17
2023-04-04T09:05:06.762Z,1.40
2023-04-04T09:07:38.610Z,1.30
2023-04-04T09:10:08.850Z,1.30
2023-04-04T09:12:41.194Z,1.10
2023-04-04T09:15:10.863Z,1.40
2023-04-04T09:17:38.402Z,1.47
2023-04-04T09:20:25.987Z,1.40
2023-04-04T09:22:53.367Z,1.30
2023-04-04T09:25:20.764Z,1.47
2023-04-04T09:27:49.924Z,1.30
2023-04-04T09:30:17.394Z,1.30
2023-04-04T09:32:45.174Z,1.77
2023-04-04T09:35:16.164Z,1.20
2023-04-04T09:37:44.063Z,1.20
2023-04-04T09:40:12.211Z,1.10
2023-04-04T09:42:39.887Z,1.10
2023-04-04T09:45:07.730Z,1.60
2023-04-04T09:47:35.804Z,1.33
2023-04-04T09:50:04.822Z,1.20
2023-04-04T09:52:38.448Z,1.17
2023-04-04T09:55:09.922Z,1.07
2023-04-04T09:57:38.133Z,1.30
2023-04-04T10:00:09.699Z,1.00
2023-04-04T10:02:41.516Z,1.17
2023-04-04T10:05:12.215Z,1.03
2023-04-04T10:07:40.633Z,1.17
2023-04-04T10:10:09.342Z,1.37
2023-04-04T10:12:40.128Z,1.47
2023-04-04T10:15:08.684Z,1.27
2023-04-04T10:17:39.759Z,1.20
2023-04-04T10:20:09.338Z,1.20
2023-04-04T10:22:38.015Z,1.10
2023-04-04T10:25:05.988Z,1.20
2023-04-04T10:27:33.994Z,1.27
2023-04-04T10:30:01.692Z,1.60
2023-04-04T10:32:37.649Z,1.57
2023-04-04T10:35:06.556Z,1.20
2023-04-04T10:37:38.852Z,1.63
2023-04-04T10:40:08.973Z,1.13
2023-04-04T10:42:47.384Z,1.23
2023-04-04T10:45:21.091Z,1.00
2023-04-04T10:47:49.543Z,1.50
2023-04-04T10:50:17.083Z,1.37
2023-04-04T10:52:45.561Z,1.53
2023-04-04T10:55:15.126Z,1.13
2023-04-04T10:57:47.897Z,1.27
2023-04-04T11:00:18.548Z,1.60
2023-04-04T11:02:59.872Z,1.50
2023-04-04T11:05:28.352Z,1.50
2023-04-04T11:08:07.698Z,1.53
2023-04-04T11:10:36.925Z,1.10
2023-04-04T11:13:13.704Z,1.50
2023-04-04T11:16:01.028Z,1.50
2023-04-04T11:18:40.622Z,1.50
2023-04-04T11:21:08.944Z,1.50
2023-04-04T11:23:56.572Z,1.40
2023-04-04T11:26:30.210Z,1.40
2023-04-04T11:29:08.940Z,1.57
2023-04-04T11:31:41.004Z,1.00
2023-04-04T11:34:09.916Z,1.50
2023-04-04T11:36:40.759Z,1.10
2023-04-04T11:39:17.645Z,1.10
2023-04-04T11:41:45.384Z,1.20
2023-04-04T11:44:12.870Z,1.10
2023-04-04T11:46:40.518Z,1.30
2023-04-04T11:49:08.045Z,0.90
2023-04-04T11:51:39.523Z,1.53
2023-04-04T11:54:09.046Z,1.47
2023-04-04T11:56:39.998Z,1.20
2023-04-04T11:59:11.811Z,1.00
2023-04-04T12:01:40.664Z,1.10
2023-04-04T12:04:08.275Z,1.30
2023-04-04T12:06:36.514Z,1.40
2023-04-04T12:09:04.884Z,1.00
2023-04-04T12:11:34.573Z,0.97
2023-04-04T12:14:02.599Z,1.13
2023-04-04T12:16:30.325Z,1.70
2023-04-04T12:19:02.229Z,1.77
2023-04-04T12:21:33.340Z,1.37
2023-04-04T12:24:00.936Z,1.20
2023-04-04T12:26:30.169Z,1.37
2023-04-04T12:28:58.670Z,2.10
2023-04-04T12:31:29.200Z,1.50
2023-04-04T12:33:56.723Z,0.73
2023-04-04T12:36:27.631Z,0.50
2023-04-04T12:39:02.424Z,0.30
2023-04-04T12:41:30.047Z,0.47
2023-04-04T12:44:04.415Z,0.47
2023-04-04T12:46:41.800Z,0.30
2023-04-04T12:49:11.798Z,0.30
2023-04-04T12:51:39.317Z,0.30
2023-04-04T12:54:07.563Z,0.63
2023-04-04T12:56:37.295Z,1.00
2023-04-04T12:59:05.508Z,0.70
2023-04-04T13:01:38.391Z,0.90
2023-04-04T13:04:05.842Z,1.10
2023-04-04T13:06:33.562Z,0.40
2023-04-04T13:09:01.397Z,0.67
2023-04-04T13:11:49.042Z,0.60
2023-04-04T13:14:17.531Z,0.50
2023-04-04T13:16:44.976Z,0.43
2023-04-04T13:19:12.464Z,0.70
2023-04-04T13:21:41.076Z,0.50
2023-04-04T13:24:08.702Z,0.60
2023-04-04T13:26:38.849Z,0.67
2023-04-04T13:29:06.286Z,0.40
2023-04-04T13:31:34.287Z,0.70
2023-04-04T13:34:01.665Z,0.70
2023-04-04T13:36:29.138Z,0.50
2023-04-04T13:38:56.596Z,0.40
2023-04-04T13:41:24.136Z,0.70
2023-04-04T13:43:52.924Z,1.00
2023-04-04T13:46:20.614Z,0.60
2023-04-04T13:48:48.125Z,0.60
2023-04-04T13:51:15.630Z,0.60
2023-04-04T13:53:45.128Z,0.50
2023-04-04T13:56:18.506Z,0.73
2023-04-04T13:58:46.548Z,0.70
2023-04-04T14:01:14.128Z,0.80
2023-04-04T14:03:41.772Z,0.70
2023-04-04T14:06:10.790Z,0.63
2023-04-04T14:08:38.821Z,0.60
2023-04-04T14:11:06.282Z,0.80
2023-04-04T14:13:33.700Z,0.70
2023-04-04T14:16:01.573Z,0.80
2023-04-04T14:18:29.188Z,0.60
2023-04-04T14:20:57.087Z,0.90
2023-04-04T14:23:24.486Z,0.63
2023-04-04T14:25:51.970Z,0.80
2023-04-04T14:28:19.727Z,0.70
2023-04-04T14:30:47.129Z,0.80
2023-04-04T14:33:14.596Z,0.65
2023-04-04T14:35:42.469Z,0.73
2023-04-04T14:38:10.369Z,0.70
2023-04-04T14:40:37.834Z,0.68
2023-04-04T14:43:05.354Z,0.70
2023-04-04T14:45:33.304Z,1.00
2023-04-04T14:48:00.908Z,0.70
2023-04-04T14:50:28.312Z,0.70
2023-04-04T14:52:56.828Z,1.10
2023-04-04T14:55:24.724Z,1.00
2023-04-04T15:00:24.572Z,0.90
2023-04-04T15:02:52.853Z,1.10
2023-04-04T15:05:20.613Z,0.73
2023-04-04T15:07:48.765Z,1.10
2023-04-04T15:10:16.672Z,0.90
2023-04-04T15:12:47.127Z,1.10
2023-04-04T15:15:14.694Z,0.93
2023-04-04T15:17:42.507Z,0.90
2023-04-04T15:20:10.568Z,1.10
2023-04-04T15:22:38.857Z,1.33
2023-04-04T15:25:07.007Z,1.40
2023-04-04T15:27:34.544Z,1.10
2023-04-04T15:30:01.965Z,1.10
2023-04-04T15:32:29.408Z,1.13
2023-04-04T15:34:58.608Z,1.27
2023-04-04T15:37:26.721Z,1.10
2023-04-04T15:39:54.845Z,0.90
2023-04-04T15:42:22.334Z,1.27
2023-04-04T15:44:49.808Z,0.90
2023-04-04T15:47:17.651Z,1.20
2023-04-04T15:49:45.080Z,1.07
2023-04-04T15:52:12.605Z,1.33
2023-04-04T15:54:40.076Z,1.20
2023-04-04T15:57:07.672Z,1.10
2023-04-04T15:59:35.253Z,2.47
2023-04-04T16:02:05.527Z,1.67
2023-04-04T16:04:33.427Z,1.30
2023-04-04T16:07:01.060Z,1.40
2023-04-04T16:09:28.613Z,1.20
2023-04-04T16:11:57.212Z,1.50
2023-04-04T16:14:25.346Z,1.43
2023-04-04T16:16:52.889Z,1.40
2023-04-04T16:19:20.360Z,1.50
2023-04-04T16:21:49.454Z,1.50
2023-04-04T16:24:16.845Z,1.30
2023-04-04T16:26:47.642Z,1.33
2023-04-04T16:29:18.921Z,1.30
2023-04-04T16:31:46.704Z,1.40
2023-04-04T16:34:14.623Z,1.20
2023-04-04T16:36:42.097Z,1.80
2023-04-04T16:39:09.683Z,1.70
2023-04-04T16:41:40.983Z,1.90
2023-04-04T16:44:08.535Z,1.70
2023-04-04T16:46:36.573Z,1.60
2023-04-04T16:49:04.084Z,1.30
2023-04-04T16:51:32.227Z,1.60
2023-04-04T16:53:59.719Z,1.80
2023-04-04T16:56:27.261Z,1.70
2023-04-04T16:58:54.729Z,1.87
2023-04-04T17:01:23.059Z,2.10
2023-04-04T17:03:50.634Z,2.10
2023-04-04T17:06:18.125Z,1.70
2023-04-04T17:08:50.175Z,1.63
2023-04-04T17:11:17.943Z,1.80
2023-04-04T17:13:46.141Z,2.00
2023-04-04T17:16:16.421Z,1.40
2023-04-04T17:18:43.937Z,1.90
2023-04-04T17:21:11.483Z,2.13
2023-04-04T17:23:38.854Z,1.87
2023-04-04T17:26:06.405Z,1.67
2023-04-04T17:28:33.883Z,2.10
2023-04-04T17:31:01.782Z,1.80
2023-04-04T17:33:29.450Z,2.27
2023-04-04T17:35:56.921Z,2.10
2023-04-04T17:38:24.365Z,2.03
2023-04-04T17:40:53.258Z,1.83
2023-04-04T17:43:21.422Z,2.27
2023-04-04T17:45:48.948Z,2.00
2023-04-04T17:48:16.896Z,2.23
2023-04-04T17:50:44.289Z,2.03
2023-04-04T17:53:12.495Z,2.03
2023-04-04T17:55:41.019Z,2.23
2023-04-04T17:58:08.738Z,2.10
2023-04-04T18:00:36.262Z,1.70
2023-04-04T18:03:04.513Z,2.30
2023-04-04T18:05:33.250Z,1.77
2023-04-04T18:08:04.891Z,2.10
2023-04-04T18:10:32.522Z,2.37
2023-04-04T18:13:00.011Z,2.10
2023-04-04T18:15:27.475Z,2.27
2023-04-04T18:17:54.881Z,2.10
2023-04-04T18:20:33.934Z,1.67
2023-04-04T18:23:09.644Z,2.30
2023-04-04T18:25:37.087Z,2.10
2023-04-04T18:28:04.556Z,2.20
2023-04-04T18:30:32.087Z,1.87
2023-04-04T18:32:59.465Z,2.00
2023-04-04T18:35:27.307Z,2.17
2023-04-04T18:37:54.644Z,2.00
2023-04-04T18:40:22.155Z,1.80
2023-04-04T18:42:49.979Z,1.80
2023-04-04T18:45:18.338Z,1.80
2023-04-04T18:47:47.077Z,1.93
2023-04-04T18:50:15.978Z,1.60
2023-04-04T18:52:43.573Z,1.80
2023-04-04T18:55:11.394Z,1.60
2023-04-04T18:57:38.935Z,1.40
2023-04-04T19:00:08.487Z,1.70
2023-04-04T19:02:37.554Z,1.80
2023-04-04T19:05:05.311Z,1.90
2023-04-04T19:07:32.834Z,2.03
2023-04-04T19:10:02.517Z,1.67
2023-04-04T19:12:29.833Z,1.57
2023-04-04T19:14:57.905Z,2.00
2023-04-04T19:17:25.409Z,1.77
2023-04-04T19:19:52.850Z,1.70
2023-04-04T19:22:20.487Z,1.90
2023-04-04T19:24:47.879Z,1.83
2023-04-04T19:27:15.881Z,1.77
2023-04-04T19:29:43.567Z,1.67
2023-04-04T19:32:14.965Z,1.60
2023-04-04T19:34:46.331Z,1.73
2023-04-04T19:37:14.723Z,2.40
2023-04-04T19:39:43.857Z,2.10
2023-04-04T19:42:12.290Z,1.87
2023-04-04T19:44:41.238Z,1.53
2023-04-04T19:47:11.094Z,1.90
2023-04-04T19:49:39.846Z,1.87
2023-04-04T19:52:08.854Z,1.77
2023-04-04T19:54:41.590Z,1.63
2023-04-04T19:57:14.803Z,1.37
2023-04-04T19:59:54.611Z,1.47
2023-04-04T20:02:28.074Z,0.90
2023-04-04T20:04:56.064Z,1.20
2023-04-04T20:07:24.597Z,1.10
2023-04-04T20:09:52.845Z,1.30
2023-04-04T20:12:23.244Z,1.37
2023-04-04T20:14:51.378Z,1.40
2023-04-04T20:17:19.417Z,1.20
2023-04-04T20:19:47.245Z,1.00
2023-04-04T20:22:16.480Z,1.70
2023-04-04T20:24:47.255Z,1.40
2023-04-04T20:27:23.016Z,1.30
2023-04-04T20:29:52.582Z,1.20
2023-04-04T20:32:20.056Z,1.20
2023-04-04T20:34:49.967Z,1.07
2023-04-04T20:37:26.282Z,0.90
2023-04-04T20:39:54.047Z,1.03
2023-04-04T20:42:38.257Z,1.10
2023-04-04T20:45:24.755Z,1.17
2023-04-04T20:47:53.492Z,1.20
2023-04-04T20:50:39.627Z,1.30
2023-04-04T20:53:07.936Z,1.00
2023-04-04T20:55:36.226Z,0.70
2023-04-04T20:58:22.257Z,1.00
2023-04-04T21:00:49.764Z,1.00
2023-04-04T21:03:29.976Z,1.07
2023-04-04T21:06:11.330Z,0.77
2023-04-04T21:08:41.984Z,1.00
2023-04-04T21:11:10.378Z,1.20
2023-04-04T21:13:38.709Z,1.10
2023-04-04T21:16:13.226Z,1.17
2023-04-04T21:18:42.026Z,1.20
2023-04-04T21:21:21.516Z,0.90
2023-04-04T21:23:53.198Z,1.10
2023-04-04T21:26:26.613Z,1.13
2023-04-04T21:28:57.642Z,0.93
2023-04-04T21:31:26.200Z,1.00
2023-04-04T21:33:54.652Z,1.30
2023-04-04T21:36:25.369Z,1.40
2023-04-04T21:38:53.377Z,1.10
2023-04-04T21:41:23.975Z,1.20
2023-04-04T21:43:52.025Z,1.10
2023-04-04T21:46:19.721Z,1.53
2023-04-04T21:48:47.934Z,1.30
2023-04-04T21:51:15.604Z,1.30
2023-04-04T21:53:42.994Z,1.20
2023-04-04T21:56:10.602Z,1.50
2023-04-04T21:58:38.191Z,1.30
2023-04-04T22:01:06.203Z,1.50
2023-04-04T22:03:33.742Z,1.17
2023-04-04T22:06:01.225Z,1.13
2023-04-04T22:08:28.650Z,1.20
2023-04-04T22:10:59.918Z,1.20
2023-04-04T22:13:33.549Z,1.17
2023-04-04T22:16:01.922Z,1.13
2023-04-04T22:18:42.921Z,1.60
2023-04-04T22:21:11.006Z,1.20
2023-04-04T22:23:40.474Z,1.03
2023-04-04T22:26:09.453Z,1.33
2023-04-04T22:28:38.784Z,1.03
2023-04-04T22:31:06.703Z,1.20
2023-04-04T22:33:34.242Z,1.07
2023-04-04T22:36:02.428Z,1.10
2023-04-04T22:38:30.301Z,1.23
2023-04-04T22:40:59.034Z,0.90
2023-04-04T22:43:26.664Z,0.97
2023-04-04T22:45:54.183Z,1.40
2023-04-04T22:48:24.843Z,1.20
2023-04-04T22:50:56.149Z,1.17
2023-04-04T22:53:27.249Z,1.30
2023-04-04T22:56:04.476Z,1.10
2023-04-04T22:58:31.918Z,1.30
2023-04-04T23:00:59.436Z,1.20
2023-04-04T23:03:27.252Z,1.10
2023-04-04T23:05:54.694Z,1.10
2023-04-04T23:08:22.325Z,1.17
2023-04-04T23:10:49.818Z,1.00
2023-04-04T23:13:17.497Z,1.10
2023-04-04T23:15:45.546Z,1.00
2023-04-04T23:18:13.537Z,0.90
2023-04-04T23:20:42.161Z,0.80
2023-04-04T23:23:09.837Z,0.90
2023-04-04T23:25:37.168Z,1.10
2023-04-04T23:28:04.807Z,1.40
2023-04-04T23:30:32.414Z,0.97
2023-04-04T23:32:59.878Z,0.90
2023-04-04T23:35:27.381Z,1.03
2023-04-04T23:37:54.694Z,1.20
2023-04-04T23:40:22.164Z,1.10
2023-04-04T23:42:49.666Z,1.23
2023-04-04T23:45:17.248Z,1.33
2023-04-04T23:47:44.750Z,1.20
2023-04-04T23:50:12.306Z,1.20
2023-04-04T23:52:41.102Z,0.90
2023-04-04T23:55:09.097Z,0.90
2023-04-04T23:57:36.609Z,1.20
